Time;durP1;ratioP1;P1;durP2;ratioP2;P2;SDS_P1;SDS_P2;PMS_P1;PMS_P2;Temp;Humidity;BMP_temperature;BMP_pressure;BME280_temperature;BME280_humidity;BME280_pressure;Samples;Min_cycle;Max_cycle;Signal;HPM_P1;HPM_P2
2021/06/01 00:02:19;;;;;;;7.60;3.63;;;;;;;12.47;64.54;100458.31;20792467;28;21145;-77
2021/06/01 00:12:21;;;;;;;5.50;3.50;;;;;;;12.06;67.34;100460.81;20810055;28;20596;-77
2021/06/01 00:22:23;;;;;;;6.32;3.55;;;;;;;11.95;67.93;100466.69;20817355;28;20096;-77
2021/06/01 00:32:25;;;;;;;6.22;3.20;;;;;;;11.55;70.30;100476.00;20809707;28;20046;-77
2021/06/01 00:42:26;;;;;;;6.35;3.42;;;;;;;11.49;70.81;100475.47;20802159;28;20047;-77
2021/06/01 00:52:28;;;;;;;7.32;3.90;;;;;;;11.29;71.14;100462.66;20801718;28;20099;-77
2021/06/01 01:02:29;;;;;;;6.53;3.80;;;;;;;11.10;72.46;100473.31;20778630;28;20057;-77
2021/06/01 01:12:40;;;;;;;7.30;3.80;;;;;;;10.83;73.76;100470.44;20808584;28;20050;-77
2021/06/01 01:22:45;;;;;;;8.93;4.55;;;;;;;10.59;74.50;100477.00;20799720;28;20048;-77
2021/06/01 01:32:59;;;;;;;7.53;4.20;;;;;;;10.44;75.66;100467.34;20800776;28;20450;-77
2021/06/01 01:43:04;;;;;;;7.45;4.07;;;;;;;10.37;77.08;100473.78;20810351;28;20049;-77
2021/06/01 01:53:10;;;;;;;8.27;4.67;;;;;;;10.32;77.17;100470.56;20800836;28;20053;-77
2021/06/01 02:03:12;;;;;;;8.75;4.63;;;;;;;10.43;75.58;100465.63;20779562;28;20388;-77
2021/06/01 02:13:14;;;;;;;8.63;4.90;;;;;;;10.25;76.70;100475.31;20784835;28;20049;-77
2021/06/01 02:33:44;;;;;;;7.20;4.63;;;;;;;9.80;78.88;100478.44;20800036;28;20407;-76
2021/06/01 02:43:46;;;;;;;9.85;5.35;;;;;;;9.76;79.31;100479.50;20786918;28;20184;-77
2021/06/01 02:53:51;;;;;;;10.05;4.40;;;;;;;9.65;79.45;100489.66;20781374;28;20100;-77
2021/06/01 03:03:54;;;;;;;8.03;5.13;;;;;;;9.59;80.24;100482.13;20789420;28;20050;-77
2021/06/01 03:13:56;;;;;;;8.23;5.35;;;;;;;9.53;79.74;100480.66;20788836;28;20135;-76
2021/06/01 03:23:58;;;;;;;9.88;6.07;;;;;;;9.31;81.30;100472.97;20804908;28;20049;-77
2021/06/01 03:34:00;;;;;;;8.73;4.80;;;;;;;9.08;82.53;100478.47;20806153;28;20046;-77
2021/06/01 03:44:03;;;;;;;10.43;5.45;;;;;;;9.04;83.09;100468.22;20782659;28;20050;-77
2021/06/01 03:54:05;;;;;;;8.02;5.38;;;;;;;9.19;82.52;100477.97;20804737;28;20050;-77
2021/06/01 04:04:09;;;;;;;9.90;5.75;;;;;;;9.33;81.62;100483.38;20799228;28;20051;-77
2021/06/01 04:14:11;;;;;;;9.57;5.82;;;;;;;9.47;80.84;100475.72;20774679;28;20049;-77
2021/06/01 04:24:13;;;;;;;8.68;5.55;;;;;;;9.63;81.08;100474.03;20800273;28;20129;-77
2021/06/01 04:34:16;;;;;;;9.75;5.43;;;;;;;11.95;69.85;100479.81;20814781;28;20049;-77
2021/06/01 04:44:17;;;;;;;9.00;5.13;;;;;;;12.44;67.08;100474.28;20776038;28;20108;-77
2021/06/01 04:54:19;;;;;;;7.65;4.50;;;;;;;11.76;69.68;100462.59;20802963;28;20045;-77
2021/06/01 05:04:21;;;;;;;9.98;5.20;;;;;;;11.51;71.66;100460.53;20781424;28;20104;-77
2021/06/01 05:14:23;;;;;;;7.35;4.97;;;;;;;11.73;69.77;100470.66;20800942;28;20400;-76
2021/06/01 05:24:25;;;;;;;7.90;4.82;;;;;;;11.91;69.13;100466.97;20798322;28;20411;-76
2021/06/01 05:34:29;;;;;;;8.20;4.60;;;;;;;12.04;68.04;100470.53;20814803;28;20057;-76
2021/06/01 05:44:31;;;;;;;7.35;4.50;;;;;;;12.33;67.44;100464.41;20779520;28;20076;-76
2021/06/01 05:54:34;;;;;;;6.90;4.20;;;;;;;12.69;65.23;100463.09;20797772;28;20045;-76
2021/06/01 06:04:36;;;;;;;7.22;3.95;;;;;;;12.98;65.19;100461.28;20807836;28;20421;-77
2021/06/01 06:14:38;;;;;;;8.77;4.30;;;;;;;13.36;64.27;100472.84;20807398;28;20103;-77
2021/06/01 06:24:39;;;;;;;6.90;4.22;;;;;;;13.64;63.19;100472.75;20785704;28;20356;-77
2021/06/01 06:34:41;;;;;;;7.70;4.47;;;;;;;14.06;61.57;100462.94;20802514;28;20050;-77
2021/06/01 06:44:53;;;;;;;6.57;3.28;;;;;;;14.43;60.59;100462.13;20788098;28;20041;-77
2021/06/01 06:55:15;;;;;;;7.85;3.67;;;;;;;14.76;58.60;100437.88;20792173;28;20045;-77
2021/06/01 07:05:19;;;;;;;7.38;3.22;;;;;;;15.11;58.55;100451.16;20788304;28;20171;-77
2021/06/01 07:15:23;;;;;;;6.25;3.30;;;;;;;15.67;56.20;100447.03;20793395;28;20091;-77
2021/06/01 07:25:25;;;;;;;8.80;3.50;;;;;;;16.06;54.42;100445.81;20804425;28;20049;-77
2021/06/01 07:35:27;;;;;;;9.85;3.17;;;;;;;16.38;53.16;100431.94;20791385;28;20041;-77
2021/06/01 07:45:28;;;;;;;6.38;2.72;;;;;;;16.83;53.89;100428.34;20790934;28;20037;-77
2021/06/01 07:55:32;;;;;;;9.52;2.65;;;;;;;17.40;50.89;100419.31;20796781;28;20560;-78
2021/06/01 08:05:34;;;;;;;5.28;2.58;;;;;;;17.50;50.19;100389.31;20818523;28;20049;-78
2021/06/01 08:15:36;;;;;;;4.88;2.25;;;;;;;18.12;46.19;100401.75;20797587;28;20486;-78
2021/06/01 08:25:38;;;;;;;5.43;2.35;;;;;;;18.60;43.05;100390.53;20811225;28;20104;-78
2021/06/01 08:35:39;;;;;;;9.35;2.95;;;;;;;19.06;42.48;100376.69;20821864;28;20095;-78
2021/06/01 08:45:43;;;;;;;4.78;1.90;;;;;;;19.26;40.12;100389.00;20799281;28;20046;-77
2021/06/01 08:55:47;;;;;;;5.90;2.00;;;;;;;19.76;37.52;100373.75;20797605;28;20089;-78
2021/06/01 09:06:21;;;;;;;5.35;2.08;;;;;;;20.15;36.59;100371.88;20794458;28;20116;-79
2021/06/01 09:37:15;;;;;;;5.10;2.33;;;;;;;21.02;34.74;100351.00;20805362;28;20050;-76
2021/06/01 09:47:39;;;;;;;4.68;2.10;;;;;;;21.36;34.35;100337.84;20812847;28;20107;-77
2021/06/01 09:57:45;;;;;;;4.63;2.13;;;;;;;21.62;34.84;100329.91;20801141;28;20050;-78
2021/06/01 10:07:49;;;;;;;5.30;2.00;;;;;;;21.96;33.11;100325.50;20814476;28;20693;-78
2021/06/01 10:17:51;;;;;;;;;;;;;;;22.12;30.37;100312.25;20774043;28;20038;-77
2021/06/01 10:28:02;;;;;;;4.50;1.92;;;;;;;22.31;31.89;100311.16;20810118;28;20378;-77
2021/06/01 10:48:48;;;;;;;6.20;1.95;;;;;;;22.51;30.89;100293.06;20778026;28;20706;-78
2021/06/01 10:58:52;;;;;;;6.00;2.30;;;;;;;22.64;32.57;100280.09;20781800;28;20108;-79
2021/06/01 11:08:54;;;;;;;8.07;2.30;;;;;;;22.50;28.97;100267.41;20791244;28;20099;-80
2021/06/01 11:18:59;;;;;;;7.50;2.00;;;;;;;22.56;29.37;100261.38;20775735;28;20107;-79
2021/06/01 11:39:48;;;;;;;3.50;1.90;;;;;;;23.08;31.61;100248.63;20838706;28;20072;-79
2021/06/01 12:21:08;;;;;;;5.10;2.10;;;;;;;23.36;32.08;100203.72;20795673;28;20088;-79
2021/06/01 12:31:14;;;;;;;7.53;2.30;;;;;;;23.34;31.56;100200.38;20823897;28;20364;-78
2021/06/01 15:47:50;;;;;;;8.15;2.08;;;;;;;24.96;26.38;100026.34;20803625;28;20466;-79
2021/06/01 17:41:24;;;;;;;4.45;1.90;;;;;;;24.45;27.96;99961.13;20806163;28;20080;-77
2021/06/01 17:51:27;;;;;;;8.88;4.60;;;;;;;24.14;28.16;99961.22;20798569;28;20049;-78
2021/06/01 18:01:31;;;;;;;3.33;1.90;;;;;;;24.12;27.67;99959.75;20806781;28;20053;-77
2021/06/01 19:54:31;;;;;;;5.85;2.40;;;;;;;19.92;39.53;99987.94;20806733;28;20050;-77
2021/06/01 20:04:34;;;;;;;5.28;2.40;;;;;;;19.68;40.23;99993.03;20803908;28;20088;-77
2021/06/01 20:14:36;;;;;;;4.65;2.03;;;;;;;19.34;41.26;99998.97;20803465;28;20045;-77
2021/06/01 20:24:40;;;;;;;6.22;2.08;;;;;;;19.14;42.20;100005.38;20822830;28;20108;-77
2021/06/01 20:34:42;;;;;;;4.37;2.17;;;;;;;18.85;42.83;100005.47;20820033;28;20088;-77
2021/06/01 20:44:46;;;;;;;4.03;2.25;;;;;;;18.52;43.97;100004.19;20793703;28;20046;-77
2021/06/01 20:54:50;;;;;;;4.13;2.35;;;;;;;18.19;45.18;100000.19;20808744;28;20124;-77
2021/06/01 21:04:52;;;;;;;5.65;2.58;;;;;;;18.02;45.75;100002.72;20798141;28;20045;-77
2021/06/01 21:14:54;;;;;;;6.13;2.30;;;;;;;17.73;46.87;100010.63;20787615;28;20073;-77
2021/06/01 21:24:55;;;;;;;5.00;2.20;;;;;;;17.39;50.49;100013.63;20806426;28;20050;-76
2021/06/01 21:35:00;;;;;;;8.68;2.47;;;;;;;16.96;51.24;100021.88;20803091;28;20419;-76
2021/06/01 21:45:12;;;;;;;4.47;2.60;;;;;;;16.43;53.17;100029.03;20797792;28;20489;-77
2021/06/01 21:55:13;;;;;;;4.85;2.70;;;;;;;15.97;55.43;100042.59;20807294;28;20050;-77
2021/06/01 22:05:16;;;;;;;7.10;3.00;;;;;;;15.51;56.72;100045.50;20803553;28;20049;-77
2021/06/01 22:15:35;;;;;;;6.15;3.00;;;;;;;15.54;58.17;100062.88;20813153;28;20056;-77
2021/06/01 22:25:37;;;;;;;6.18;2.60;;;;;;;15.16;59.68;100065.88;20823407;28;20128;-77
2021/06/01 22:35:40;;;;;;;5.20;3.03;;;;;;;14.64;61.54;100059.38;20822011;28;20111;-77
2021/06/01 22:45:42;;;;;;;7.60;2.97;;;;;;;14.47;61.45;100060.69;20813063;28;20103;-77
2021/06/01 22:55:44;;;;;;;8.70;3.50;;;;;;;14.35;62.55;100071.25;20820409;28;20045;-77
2021/06/01 23:05:46;;;;;;;5.88;3.47;;;;;;;14.26;62.33;100067.50;20819403;28;20041;-77
2021/06/01 23:15:47;;;;;;;10.00;3.10;;;;;;;14.16;61.87;100063.88;20804429;28;20123;-77
2021/06/01 23:25:50;;;;;;;9.32;3.20;;;;;;;14.03;62.66;100060.47;20825619;28;20053;-77
2021/06/01 23:35:52;;;;;;;9.55;3.28;;;;;;;13.87;63.52;100068.66;20833469;28;20151;-78
2021/06/01 23:45:57;;;;;;;7.45;3.50;;;;;;;13.71;65.21;100058.41;20807044;28;20511;-77
2021/06/01 23:55:59;;;;;;;6.75;3.75;;;;;;;13.34;66.42;100056.75;20832257;28;20515;-76
